Time;durP1;ratioP1;P1;durP2;ratioP2;P2;SDS_P1;SDS_P2;PMS_P1;PMS_P2;Temp;Humidity;BMP_temperature;BMP_pressure;BME280_temperature;BME280_humidity;BME280_pressure;Samples;Min_cycle;Max_cycle;Signal;HPM_P1;HPM_P2
2022/06/07 00:02:28;;;;;;;3.63;2.10;;;12.40;99.90;;;;;;5093608;28;20254;-41
2022/06/07 00:04:54;;;;;;;2.50;2.30;;;12.30;99.90;;;;;;5093686;28;20202;-41
2022/06/07 00:07:23;;;;;;;2.20;2.00;;;12.30;99.90;;;;;;5095005;28;20182;-42
2022/06/07 00:09:49;;;;;;;3.13;2.20;;;12.30;99.90;;;;;;5100925;28;20687;-41
2022/06/07 00:12:17;;;;;;;4.27;2.00;;;12.30;99.90;;;;;;5099529;28;20235;-43
2022/06/07 00:14:43;;;;;;;2.63;2.37;;;12.30;99.90;;;;;;5101529;28;20190;-41
2022/06/07 00:17:09;;;;;;;3.87;2.20;;;12.20;99.90;;;;;;5103364;28;20210;-41
2022/06/07 00:19:35;;;;;;;4.10;2.00;;;12.20;99.90;;;;;;5102720;28;20230;-41
2022/06/07 00:22:02;;;;;;;2.20;2.00;;;12.10;99.90;;;;;;5103565;28;20175;-41
2022/06/07 00:24:28;;;;;;;5.13;2.10;;;12.10;99.90;;;;;;5102174;28;20665;-40
2022/06/07 00:26:54;;;;;;;4.77;1.80;;;12.10;99.90;;;;;;5103752;28;20175;-41
2022/06/07 00:29:22;;;;;;;3.87;2.40;;;12.10;99.90;;;;;;5102162;28;20209;-41
2022/06/07 00:31:48;;;;;;;1.90;1.73;;;12.10;99.90;;;;;;5103848;28;20170;-41
2022/06/07 00:34:14;;;;;;;2.63;1.60;;;12.00;99.90;;;;;;5102949;28;20211;-42
2022/06/07 00:36:40;;;;;;;4.23;1.70;;;12.00;99.90;;;;;;5102857;28;20172;-41
2022/06/07 00:39:07;;;;;;;3.83;1.87;;;11.90;99.90;;;;;;5102318;28;20191;-40
2022/06/07 00:41:33;;;;;;;2.23;2.00;;;11.90;99.90;;;;;;5102630;28;20175;-40
2022/06/07 00:44:20;;;;;;;1.70;1.60;;;11.90;99.90;;;;;;5103295;28;20178;-42
2022/06/07 00:46:46;;;;;;;3.73;1.70;;;11.90;99.90;;;;;;5102800;28;20216;-41
2022/06/07 00:49:15;;;;;;;1.70;1.50;;;11.90;99.90;;;;;;5104851;28;20210;-40
2022/06/07 00:51:41;;;;;;;3.23;1.83;;;11.80;99.90;;;;;;5102920;28;20662;-39
2022/06/07 00:54:07;;;;;;;2.13;1.87;;;11.80;99.90;;;;;;5100497;28;20171;-40
2022/06/07 00:56:33;;;;;;;2.50;2.20;;;11.70;99.90;;;;;;5078948;28;20703;-40
2022/06/07 00:59:03;;;;;;;1.83;1.70;;;11.70;99.90;;;;;;5096888;28;20273;-40
2022/06/07 01:01:30;;;;;;;2.57;2.17;;;11.60;99.90;;;;;;5096816;28;20255;-41
2022/06/07 01:03:55;;;;;;;4.50;2.20;;;11.60;99.90;;;;;;5097109;28;20174;-40
2022/06/07 01:11:49;;;;;;;2.33;2.00;;;11.60;99.90;;;;;;5097127;28;20166;-44
2022/06/07 01:14:15;;;;;;;4.37;2.07;;;11.50;99.90;;;;;;5078792;28;20178;-42
2022/06/07 01:16:41;;;;;;;7.97;2.40;;;11.50;99.90;;;;;;5096935;28;20224;-42
2022/06/07 01:19:07;;;;;;;2.97;1.97;;;11.40;99.90;;;;;;5096695;28;20733;-41
2022/06/07 01:21:35;;;;;;;2.83;1.80;;;11.40;99.90;;;;;;5096525;28;20254;-41
2022/06/07 01:24:01;;;;;;;3.03;2.10;;;11.40;99.90;;;;;;5096224;28;20177;-42
2022/06/07 01:26:27;;;;;;;2.53;1.67;;;11.40;99.90;;;;;;5096835;28;20186;-42
2022/06/07 01:28:53;;;;;;;2.77;2.00;;;11.30;99.90;;;;;;5096386;28;20569;-43
2022/06/07 01:31:19;;;;;;;3.40;1.67;;;11.30;99.90;;;;;;5096081;28;20219;-42
2022/06/07 01:33:46;;;;;;;3.10;1.77;;;11.30;99.90;;;;;;5096946;28;20203;-41
2022/06/07 01:36:14;;;;;;;2.73;1.80;;;11.20;99.90;;;;;;5096964;28;20245;-39
2022/06/07 01:38:42;;;;;;;1.90;1.70;;;11.20;99.90;;;;;;5096574;28;20240;-42
2022/06/07 01:43:54;;;;;;;1.67;1.57;;;11.10;99.90;;;;;;5097124;28;20232;-43
2022/06/07 01:46:20;;;;;;;1.83;1.57;;;11.20;99.90;;;;;;5096597;28;20205;-42
2022/06/07 01:48:47;;;;;;;2.33;1.77;;;11.10;99.90;;;;;;5095896;28;20193;-40
2022/06/07 01:51:14;;;;;;;2.30;1.80;;;11.10;99.90;;;;;;5095929;28;20626;-41
2022/06/07 01:53:40;;;;;;;2.73;1.67;;;11.00;99.90;;;;;;5096195;28;20193;-41
2022/06/07 01:56:10;;;;;;;2.07;1.63;;;11.10;99.90;;;;;;5095813;28;20280;-42
2022/06/07 01:58:38;;;;;;;3.30;2.00;;;11.10;99.90;;;;;;5077327;28;20199;-39
2022/06/07 02:01:04;;;;;;;4.63;1.90;;;11.00;99.90;;;;;;5077142;28;20289;-40
2022/06/07 02:03:30;;;;;;;3.67;1.97;;;11.00;99.90;;;;;;5095773;28;20190;-38
2022/06/07 02:06:05;;;;;;;3.47;1.87;;;11.00;99.90;;;;;;5095453;28;20214;-42
2022/06/07 02:08:31;;;;;;;3.90;1.60;;;11.00;99.90;;;;;;5095108;28;20678;-42
2022/06/07 02:11:05;;;;;;;4.57;1.70;;;10.90;99.90;;;;;;5095348;28;20282;-40
2022/06/07 02:13:31;;;;;;;2.90;2.00;;;10.80;99.90;;;;;;5077605;28;20595;-43
2022/06/07 02:15:57;;;;;;;1.87;1.57;;;10.90;99.90;;;;;;5077547;28;20270;-40
2022/06/07 02:18:23;;;;;;;1.67;1.57;;;10.90;99.90;;;;;;5095004;28;20251;-41
2022/06/07 02:20:49;;;;;;;3.03;1.80;;;10.80;99.90;;;;;;5077505;28;20190;-41
2022/06/07 02:23:15;;;;;;;3.37;1.67;;;10.90;99.90;;;;;;5095413;28;20194;-40
2022/06/07 02:25:49;;;;;;;2.07;1.70;;;10.90;99.90;;;;;;5095736;28;20207;-40
2022/06/07 02:28:19;;;;;;;2.53;1.70;;;10.90;99.90;;;;;;5077874;28;20194;-39
2022/06/07 02:30:45;;;;;;;3.03;1.80;;;10.90;99.90;;;;;;5078043;28;20182;-38
2022/06/07 02:33:12;;;;;;;2.87;1.60;;;10.80;99.90;;;;;;5076886;28;20185;-41
2022/06/07 02:35:40;;;;;;;3.27;1.67;;;10.80;99.90;;;;;;5094593;28;20240;-38
2022/06/07 02:38:08;;;;;;;2.10;1.67;;;10.80;99.90;;;;;;5094518;28;20201;-39
2022/06/07 02:40:35;;;;;;;2.13;1.50;;;10.80;99.90;;;;;;5094903;28;20179;-41
2022/06/07 02:43:04;;;;;;;2.33;1.43;;;10.80;99.90;;;;;;5095976;28;20214;-41
2022/06/07 02:45:30;;;;;;;1.87;1.47;;;10.70;99.90;;;;;;5095462;28;20206;-40
2022/06/07 02:47:55;;;;;;;2.80;1.40;;;10.70;99.90;;;;;;5076741;28;20313;-39
2022/06/07 02:50:22;;;;;;;2.93;1.70;;;10.60;99.90;;;;;;5095194;28;20185;-42
2022/06/07 02:52:47;;;;;;;1.80;1.60;;;10.70;99.90;;;;;;5077127;28;20229;-41
2022/06/07 02:55:14;;;;;;;4.07;1.60;;;10.70;99.90;;;;;;5094962;28;20266;-38
2022/06/07 02:57:40;;;;;;;4.83;1.60;;;10.60;99.90;;;;;;5095329;28;20524;-40
2022/06/07 03:00:07;;;;;;;4.00;1.70;;;10.60;99.90;;;;;;5094288;28;20709;-39
2022/06/07 03:02:33;;;;;;;5.27;1.90;;;10.60;99.90;;;;;;5094846;28;20183;-42
2022/06/07 03:04:58;;;;;;;4.87;1.70;;;10.60;99.90;;;;;;5095019;28;20261;-41
2022/06/07 03:07:24;;;;;;;2.30;1.60;;;10.60;99.90;;;;;;5094391;28;20184;-40
2022/06/07 03:09:49;;;;;;;3.90;1.40;;;10.50;99.90;;;;;;5076596;28;20284;-41
2022/06/07 03:12:15;;;;;;;3.30;1.67;;;10.60;99.90;;;;;;5094334;28;20223;-38
2022/06/07 03:14:41;;;;;;;4.70;1.67;;;10.60;99.90;;;;;;5094541;28;20258;-42
2022/06/07 03:17:07;;;;;;;2.50;1.50;;;10.50;99.90;;;;;;5094588;28;20184;-41
2022/06/07 03:19:34;;;;;;;2.47;1.57;;;10.60;99.90;;;;;;5094391;28;20277;-39
2022/06/07 03:22:00;;;;;;;2.10;1.63;;;10.50;99.90;;;;;;5076368;28;20275;-40
2022/06/07 03:24:26;;;;;;;3.20;1.97;;;10.50;99.90;;;;;;5094154;28;20276;-40
2022/06/07 03:26:52;;;;;;;2.10;1.60;;;10.50;99.90;;;;;;5094498;28;20197;-41
2022/06/07 03:29:18;;;;;;;1.97;1.60;;;10.50;99.90;;;;;;5094473;28;20224;-42
2022/06/07 03:31:46;;;;;;;2.00;1.27;;;10.50;99.90;;;;;;5059793;28;20645;-40
2022/06/07 03:34:12;;;;;;;2.63;1.40;;;10.50;99.90;;;;;;5094020;28;20179;-45
2022/06/07 03:36:38;;;;;;;5.23;1.77;;;10.60;99.90;;;;;;5093954;28;20224;-46
2022/06/07 03:39:07;;;;;;;4.10;1.40;;;10.60;99.90;;;;;;5093860;28;20228;-44
2022/06/07 03:41:33;;;;;;;4.10;1.50;;;10.50;99.90;;;;;;5094033;28;20182;-45
2022/06/07 03:43:58;;;;;;;2.90;1.20;;;10.50;99.90;;;;;;5093580;28;20191;-44
2022/06/07 03:46:27;;;;;;;2.33;1.23;;;10.60;99.90;;;;;;5075350;28;20219;-44
2022/06/07 03:48:54;;;;;;;4.77;1.70;;;10.50;99.90;;;;;;5093150;28;20375;-46
2022/06/07 03:51:22;;;;;;;1.93;1.30;;;10.50;99.90;;;;;;5093573;28;20189;-45
2022/06/07 03:53:48;;;;;;;3.17;1.53;;;10.50;99.90;;;;;;5093837;28;20173;-44
2022/06/07 03:56:14;;;;;;;2.13;1.47;;;10.50;99.90;;;;;;5093480;28;20531;-46
2022/06/07 03:58:40;;;;;;;2.63;1.50;;;10.50;99.90;;;;;;5075630;28;20207;-45
2022/06/07 04:01:08;;;;;;;1.50;1.20;;;10.50;99.90;;;;;;5093349;28;20287;-45
2022/06/07 04:03:34;;;;;;;3.10;1.57;;;10.50;99.90;;;;;;5093283;28;20195;-45
2022/06/07 04:06:00;;;;;;;2.57;1.37;;;10.50;99.90;;;;;;5093585;28;20212;-44
2022/06/07 04:08:26;;;;;;;3.67;1.57;;;10.60;99.90;;;;;;5093430;28;20202;-46
2022/06/07 04:10:57;;;;;;;3.87;1.50;;;10.60;99.90;;;;;;5093438;28;20183;-44
2022/06/07 04:13:26;;;;;;;2.63;1.40;;;10.60;99.90;;;;;;5093581;28;20579;-44
2022/06/07 04:15:52;;;;;;;1.50;1.40;;;10.60;99.90;;;;;;5093821;28;20221;-38
2022/06/07 04:18:18;;;;;;;2.37;1.50;;;10.70;99.90;;;;;;5093615;28;20236;-38
2022/06/07 04:20:44;;;;;;;3.97;1.53;;;10.80;99.90;;;;;;5093612;28;20586;-39
2022/06/07 04:23:16;;;;;;;3.77;1.50;;;10.80;99.90;;;;;;5093168;28;20184;-41
2022/06/07 04:25:43;;;;;;;1.70;1.40;;;10.80;99.90;;;;;;5093560;28;20655;-39
2022/06/07 04:28:09;;;;;;;1.83;1.50;;;10.90;99.90;;;;;;5075189;28;20288;-40
2022/06/07 04:30:34;;;;;;;4.87;1.50;;;10.90;99.90;;;;;;5093156;28;20185;-37
2022/06/07 04:33:00;;;;;;;2.07;1.43;;;10.90;99.90;;;;;;5093123;28;20195;-39
2022/06/07 04:35:26;;;;;;;3.30;1.53;;;11.00;99.90;;;;;;5093172;28;20625;-39
2022/06/07 04:37:53;;;;;;;2.17;1.30;;;11.00;99.90;;;;;;5093380;28;20671;-39
2022/06/07 04:40:19;;;;;;;1.63;1.40;;;11.00;99.90;;;;;;5093367;28;20209;-38
2022/06/07 04:42:45;;;;;;;2.93;1.70;;;11.00;99.90;;;;;;5093046;28;20214;-42
2022/06/07 04:45:15;;;;;;;3.03;1.47;;;11.10;99.90;;;;;;5093135;28;20213;-38
2022/06/07 04:47:41;;;;;;;4.67;1.50;;;11.10;99.90;;;;;;5093126;28;20706;-38
2022/06/07 04:50:09;;;;;;;2.23;1.50;;;11.10;99.90;;;;;;5092906;28;20187;-39
2022/06/07 04:52:35;;;;;;;3.40;1.33;;;11.10;99.90;;;;;;5092893;28;20228;-37
2022/06/07 04:55:01;;;;;;;1.90;1.40;;;11.20;99.90;;;;;;5093614;28;20538;-38
2022/06/07 04:57:28;;;;;;;2.57;1.20;;;11.20;99.90;;;;;;5093579;28;20196;-39
2022/06/07 04:59:54;;;;;;;3.70;1.70;;;11.20;99.90;;;;;;5094324;28;20204;-38
2022/06/07 05:02:19;;;;;;;3.03;1.43;;;11.30;99.90;;;;;;5078417;28;20172;-37
2022/06/07 05:04:45;;;;;;;1.70;1.50;;;11.40;99.90;;;;;;5079080;28;20204;-38
2022/06/07 05:07:11;;;;;;;3.67;1.60;;;11.50;99.90;;;;;;5079795;28;20648;-39
2022/06/07 05:09:37;;;;;;;4.10;1.70;;;11.60;99.90;;;;;;5078579;28;20225;-39
2022/06/07 05:12:03;;;;;;;2.97;1.87;;;11.80;99.90;;;;;;5097634;28;20691;-38
2022/06/07 05:14:28;;;;;;;3.30;1.67;;;12.00;99.90;;;;;;5096609;28;20185;-39
2022/06/07 05:16:54;;;;;;;3.60;1.70;;;12.20;99.90;;;;;;5096314;28;20643;-40
2022/06/07 05:19:20;;;;;;;2.07;1.60;;;12.40;99.90;;;;;;5097207;28;20228;-39
2022/06/07 05:21:46;;;;;;;5.93;1.87;;;12.50;99.90;;;;;;5097283;28;20189;-40
2022/06/07 05:24:12;;;;;;;6.70;1.60;;;12.70;99.90;;;;;;5096556;28;20174;-38
2022/06/07 05:26:51;;;;;;;2.83;1.77;;;12.80;99.90;;;;;;5097595;28;20183;-40
2022/06/07 05:29:27;;;;;;;2.63;1.67;;;12.90;99.90;;;;;;5079329;28;20209;-38
2022/06/07 05:31:53;;;;;;;3.50;1.50;;;13.10;99.90;;;;;;5096335;28;20256;-40
2022/06/07 05:34:19;;;;;;;1.90;1.60;;;13.20;99.90;;;;;;5078516;28;20228;-39
2022/06/07 05:36:45;;;;;;;3.63;1.60;;;13.30;99.90;;;;;;5096609;28;20186;-40
2022/06/07 05:39:24;;;;;;;2.50;1.50;;;13.40;99.90;;;;;;5078352;28;20202;-40
2022/06/07 05:41:51;;;;;;;4.27;1.73;;;13.60;99.90;;;;;;5096845;28;20260;-39
2022/06/07 05:44:17;;;;;;;5.20;1.70;;;13.80;99.90;;;;;;5078111;28;20191;-40
2022/06/07 05:46:42;;;;;;;4.87;2.10;;;13.90;99.90;;;;;;5096750;28;20658;-40
2022/06/07 05:49:09;;;;;;;3.70;1.87;;;14.10;99.90;;;;;;5095611;28;20269;-39
2022/06/07 05:51:36;;;;;;;3.90;2.07;;;14.30;99.90;;;;;;5095638;28;20177;-41
2022/06/07 05:54:01;;;;;;;6.00;1.50;;;14.50;99.90;;;;;;5096142;28;20539;-42
2022/06/07 05:56:27;;;;;;;5.47;1.53;;;14.60;99.90;;;;;;5096066;28;20182;-38
2022/06/07 05:58:52;;;;;;;3.07;1.70;;;14.60;99.90;;;;;;5095705;28;20252;-38
2022/06/07 06:01:18;;;;;;;2.47;1.73;;;14.80;99.90;;;;;;5095957;28;20191;-39
2022/06/07 06:03:44;;;;;;;3.07;1.80;;;14.90;99.90;;;;;;5095688;28;20649;-38
2022/06/07 06:06:11;;;;;;;7.07;1.90;;;15.00;99.90;;;;;;5095477;28;20248;-40
2022/06/07 06:11:24;;;;;;;4.53;1.87;;;15.30;99.90;;;;;;5094923;28;20248;-39
2022/06/07 06:13:50;;;;;;;2.20;1.47;;;15.50;99.90;;;;;;5095587;28;20182;-40
2022/06/07 06:16:18;;;;;;;3.17;1.73;;;15.70;99.90;;;;;;5095481;28;20662;-41
2022/06/07 06:18:49;;;;;;;4.07;1.90;;;15.90;99.90;;;;;;5095077;28;20241;-40
2022/06/07 06:21:15;;;;;;;5.10;1.67;;;16.20;99.90;;;;;;5095268;28;20159;-40
2022/06/07 06:23:41;;;;;;;3.57;1.33;;;16.40;99.90;;;;;;5095249;28;20171;-41
2022/06/07 06:26:11;;;;;;;2.17;1.57;;;16.70;99.90;;;;;;5095102;28;20620;-40
2022/06/07 06:28:37;;;;;;;4.83;1.33;;;16.80;99.90;;;;;;5095096;28;20201;-39
2022/06/07 06:31:06;;;;;;;3.63;1.30;;;16.90;99.90;;;;;;5094904;28;20647;-41
2022/06/07 06:33:44;;;;;;;4.73;1.30;;;16.90;99.90;;;;;;5094767;28;20174;-41
2022/06/07 06:36:12;;;;;;;1.80;1.00;;;17.00;99.90;;;;;;5094829;28;20635;-41
2022/06/07 06:38:37;;;;;;;1.73;1.10;;;17.10;99.90;;;;;;5094552;28;20206;-39
2022/06/07 06:41:10;;;;;;;2.67;1.17;;;17.20;99.90;;;;;;5094686;28;20184;-40
2022/06/07 06:43:35;;;;;;;2.20;1.10;;;17.20;99.90;;;;;;5095084;28;20206;-39
2022/06/07 06:46:06;;;;;;;4.73;1.20;;;17.20;99.90;;;;;;5094775;28;20315;-40
2022/06/07 06:48:32;;;;;;;3.97;1.30;;;17.20;99.90;;;;;;5095003;28;20278;-39
2022/06/07 06:51:05;;;;;;;2.60;1.33;;;17.30;99.90;;;;;;5094488;28;20190;-39
2022/06/07 06:53:32;;;;;;;4.70;1.33;;;17.50;99.90;;;;;;5094741;28;20611;-39
2022/06/07 06:55:58;;;;;;;4.00;1.30;;;17.60;99.90;;;;;;5094398;28;20193;-41
2022/06/07 06:58:26;;;;;;;4.33;1.27;;;17.70;99.90;;;;;;5094463;28;20191;-40
2022/06/07 07:01:04;;;;;;;9.93;1.30;;;17.80;99.90;;;;;;5094172;28;20191;-41
2022/06/07 07:03:30;;;;;;;3.30;1.10;;;17.70;99.90;;;;;;5094314;28;20166;-40
2022/06/07 07:05:56;;;;;;;3.20;1.33;;;17.60;99.90;;;;;;5094520;28;20285;-41
2022/06/07 07:08:25;;;;;;;2.47;1.23;;;17.50;99.90;;;;;;5094272;28;20329;-40
2022/06/07 07:11:12;;;;;;;2.03;1.30;;;17.40;99.90;;;;;;5094266;28;20690;-40
2022/06/07 07:13:39;;;;;;;2.53;1.10;;;17.30;99.90;;;;;;5094671;28;20167;-41
2022/06/07 07:16:11;;;;;;;3.10;1.23;;;17.30;99.90;;;;;;5094215;28;20571;-41
2022/06/07 07:18:37;;;;;;;3.57;1.30;;;17.30;99.90;;;;;;5094204;28;20661;-42
2022/06/07 07:21:08;;;;;;;1.50;0.90;;;17.20;99.90;;;;;;5094792;28;20252;-40
2022/06/07 07:23:35;;;;;;;2.00;1.20;;;17.20;99.90;;;;;;5094297;28;20180;-40
2022/06/07 07:26:11;;;;;;;3.30;1.40;;;17.20;99.90;;;;;;5094331;28;20226;-40
2022/06/07 07:28:39;;;;;;;2.20;1.27;;;17.30;99.90;;;;;;5095248;28;20603;-40
2022/06/07 07:31:07;;;;;;;1.33;1.10;;;17.30;99.90;;;;;;5094446;28;20536;-42
2022/06/07 07:33:33;;;;;;;4.53;1.20;;;17.40;99.90;;;;;;5094340;28;20586;-40
2022/06/07 07:36:05;;;;;;;2.00;1.57;;;17.40;99.90;;;;;;5094760;28;20266;-41
2022/06/07 07:38:31;;;;;;;3.33;1.30;;;17.60;99.90;;;;;;5095002;28;20280;-40
2022/06/07 07:40:57;;;;;;;5.43;1.33;;;17.70;99.90;;;;;;5093934;28;20183;-38
2022/06/07 07:43:22;;;;;;;3.43;1.20;;;17.90;99.90;;;;;;5093617;28;20326;-42
2022/06/07 07:45:53;;;;;;;3.03;1.30;;;18.00;99.90;;;;;;5093622;28;20252;-41
2022/06/07 07:48:19;;;;;;;5.43;1.27;;;18.10;99.90;;;;;;5093912;28;20199;-41
2022/06/07 07:50:45;;;;;;;4.27;1.27;;;18.10;99.90;;;;;;5093483;28;20174;-41
2022/06/07 07:53:12;;;;;;;2.43;1.20;;;18.20;99.90;;;;;;5093461;28;20561;-40
2022/06/07 07:55:46;;;;;;;4.47;1.20;;;18.10;99.90;;;;;;5093560;28;20270;-38
2022/06/07 07:58:12;;;;;;;1.73;1.30;;;18.20;99.90;;;;;;5093416;28;20702;-39
2022/06/07 08:00:42;;;;;;;4.43;1.60;;;18.20;99.90;;;;;;5093478;28;20191;-42
2022/06/07 08:03:08;;;;;;;6.10;1.40;;;18.30;99.90;;;;;;5093837;28;20323;-41
2022/06/07 08:05:34;;;;;;;1.80;1.27;;;18.40;99.90;;;;;;5093455;28;20281;-39
2022/06/07 08:07:59;;;;;;;1.20;0.90;;;18.50;99.90;;;;;;5093361;28;20206;-40
2022/06/07 08:10:25;;;;;;;2.90;1.03;;;18.50;99.90;;;;;;5093781;28;20179;-41
2022/06/07 08:12:50;;;;;;;1.47;1.03;;;18.60;99.90;;;;;;5093359;28;20677;-40
2022/06/07 08:15:20;;;;;;;4.93;1.20;;;18.70;99.90;;;;;;5093657;28;20186;-40
2022/06/07 08:17:46;;;;;;;3.03;1.17;;;18.70;99.90;;;;;;5093357;28;20513;-42
2022/06/07 08:20:12;;;;;;;1.03;0.77;;;18.90;99.90;;;;;;5093372;28;20183;-40
2022/06/07 08:22:38;;;;;;;2.00;1.00;;;19.20;99.90;;;;;;5093694;28;20266;-41
2022/06/07 08:25:04;;;;;;;2.43;1.07;;;19.50;99.90;;;;;;5093010;28;20282;-43
2022/06/07 08:27:30;;;;;;;1.27;0.97;;;19.80;99.90;;;;;;5093480;28;20203;-41
2022/06/07 08:29:55;;;;;;;3.57;0.97;;;19.90;99.90;;;;;;5093578;28;20194;-40
2022/06/07 08:32:21;;;;;;;2.93;1.20;;;20.10;99.90;;;;;;5094190;28;20177;-42
2022/06/07 08:37:33;;;;;;;0.90;0.70;;;20.50;99.90;;;;;;5097324;28;20265;-40
2022/06/07 08:40:00;;;;;;;2.63;1.23;;;20.80;99.90;;;;;;5097479;28;20199;-42
2022/06/07 08:42:38;;;;;;;2.80;1.17;;;20.90;99.90;;;;;;5097147;28;20179;-41
2022/06/07 08:45:08;;;;;;;3.40;1.20;;;20.90;99.90;;;;;;5097247;28;20187;-41
2022/06/07 08:47:37;;;;;;;3.20;1.00;;;20.90;99.90;;;;;;5078712;28;20181;-42
2022/06/07 08:50:22;;;;;;;1.77;0.80;;;20.90;99.90;;;;;;5078577;28;20206;-42
2022/06/07 08:52:50;;;;;;;3.23;0.90;;;20.90;99.90;;;;;;5097058;28;20187;-41
2022/06/07 08:55:24;;;;;;;2.07;0.90;;;21.00;99.90;;;;;;5096993;28;20512;-41
2022/06/07 08:57:56;;;;;;;2.13;1.10;;;21.20;99.90;;;;;;5096653;28;20190;-41
2022/06/07 09:00:29;;;;;;;4.17;1.07;;;21.40;99.90;;;;;;5097057;28;20191;-42
2022/06/07 09:03:39;;;;;;;2.37;1.03;;;21.50;99.90;;;;;;5078398;28;20182;-41
2022/06/07 09:06:16;;;;;;;2.73;0.80;;;21.50;99.90;;;;;;5096662;28;20229;-41
2022/06/07 09:08:55;;;;;;;2.17;0.80;;;21.50;99.90;;;;;;5096731;28;20183;-43
2022/06/07 09:14:32;;;;;;;1.83;0.80;;;21.60;99.90;;;;;;5096958;28;20170;-43
2022/06/07 09:17:00;;;;;;;2.33;0.87;;;21.80;99.90;;;;;;5096627;28;20178;-42
2022/06/07 09:19:28;;;;;;;2.80;1.03;;;21.80;99.90;;;;;;5096125;28;20226;-41
2022/06/07 09:21:58;;;;;;;4.37;1.00;;;21.90;99.90;;;;;;5096267;28;20174;-42
2022/06/07 09:24:48;;;;;;;0.90;0.90;;;21.90;99.90;;;;;;5096294;28;20159;-41
2022/06/07 09:27:18;;;;;;;3.47;0.87;;;22.10;99.90;;;;;;5096474;28;20156;-41
2022/06/07 09:30:19;;;;;;;2.73;1.10;;;22.20;99.90;;;;;;5096340;28;20220;-42
2022/06/07 09:32:45;;;;;;;2.27;1.10;;;22.30;99.90;;;;;;5069632;28;20182;-42
2022/06/07 09:35:31;;;;;;;1.57;0.80;;;22.40;99.90;;;;;;5096037;28;20175;-43
2022/06/07 09:38:02;;;;;;;1.83;0.80;;;22.60;99.90;;;;;;5095702;28;20667;-43
2022/06/07 09:40:55;;;;;;;3.50;0.90;;;22.50;99.90;;;;;;5095849;28;20220;-42
2022/06/07 09:43:37;;;;;;;0.90;0.90;;;22.40;99.90;;;;;;5060948;28;20213;-42
2022/06/07 09:46:08;;;;;;;5.33;1.20;;;22.40;99.90;;;;;;5094524;28;20197;-42
2022/06/07 09:48:43;;;;;;;3.40;1.20;;;22.40;99.90;;;;;;5095744;28;20663;-43
2022/06/07 09:51:22;;;;;;;1.87;0.80;;;22.40;99.90;;;;;;5077570;28;20179;-43
2022/06/07 09:54:04;;;;;;;2.17;1.17;;;22.40;99.90;;;;;;5095956;28;20170;-42
2022/06/07 09:56:58;;;;;;;1.07;0.80;;;22.40;99.90;;;;;;5096128;28;20615;-42
2022/06/07 09:59:45;;;;;;;3.30;1.10;;;22.40;99.90;;;;;;5095373;28;20225;-42
2022/06/07 10:02:29;;;;;;;2.70;0.70;;;22.40;99.90;;;;;;5096055;28;20228;-42
2022/06/07 10:05:27;;;;;;;1.90;0.90;;;22.20;99.90;;;;;;5095241;28;20194;-42
2022/06/07 10:08:23;;;;;;;1.37;0.90;;;22.20;99.90;;;;;;5061729;28;20230;-42
2022/06/07 10:11:02;;;;;;;1.87;0.80;;;22.20;99.90;;;;;;5095643;28;20234;-40
2022/06/07 10:13:53;;;;;;;1.83;0.80;;;22.30;99.90;;;;;;5095438;28;20171;-42
2022/06/07 10:16:56;;;;;;;2.40;1.00;;;22.40;99.90;;;;;;5095689;28;20167;-43
2022/06/07 10:19:32;;;;;;;3.73;1.03;;;22.70;99.90;;;;;;5094934;28;20234;-43
2022/06/07 10:22:06;;;;;;;1.43;0.90;;;22.90;99.90;;;;;;5095269;28;20178;-42
2022/06/07 10:24:41;;;;;;;1.77;0.83;;;23.10;99.90;;;;;;5095326;28;20268;-43
2022/06/07 10:27:23;;;;;;;2.07;1.00;;;23.20;99.90;;;;;;5096180;28;20167;-43
2022/06/07 10:30:16;;;;;;;2.43;1.20;;;23.20;99.90;;;;;;5095797;28;20256;-42
2022/06/07 10:32:49;;;;;;;2.67;0.90;;;23.40;99.90;;;;;;5095191;28;20163;-41
2022/06/07 10:35:27;;;;;;;2.27;1.03;;;23.60;99.90;;;;;;5095031;28;20194;-43
2022/06/07 10:37:52;;;;;;;2.30;1.20;;;23.80;99.90;;;;;;5076520;28;20232;-43
2022/06/07 10:40:29;;;;;;;2.00;0.80;;;23.80;99.90;;;;;;5094986;28;20187;-41
2022/06/07 10:43:01;;;;;;;4.43;1.03;;;24.10;99.90;;;;;;5095031;28;20159;-41
2022/06/07 10:45:31;;;;;;;2.10;0.87;;;24.10;99.90;;;;;;5094734;28;20285;-43
2022/06/07 10:48:09;;;;;;;2.07;0.90;;;24.10;99.90;;;;;;5094888;28;20593;-42
2022/06/07 10:50:41;;;;;;;5.07;1.10;;;24.10;99.90;;;;;;5094579;28;20206;-42
2022/06/07 10:53:28;;;;;;;2.27;1.00;;;24.10;99.90;;;;;;5094703;28;20266;-42
2022/06/07 10:55:58;;;;;;;3.23;1.37;;;24.20;99.90;;;;;;5094664;28;20170;-42
2022/06/07 10:58:47;;;;;;;3.60;1.17;;;24.30;99.90;;;;;;5093831;28;20244;-41
2022/06/07 11:01:17;;;;;;;2.67;1.03;;;24.30;99.90;;;;;;5094359;28;20202;-42
2022/06/07 11:03:51;;;;;;;4.53;1.10;;;24.30;99.90;;;;;;5094525;28;20218;-42
2022/06/07 11:09:43;;;;;;;3.97;0.93;;;24.10;99.90;;;;;;5095048;28;20275;-41
2022/06/07 11:12:14;;;;;;;1.57;1.10;;;23.90;99.90;;;;;;5094353;28;20607;-42
2022/06/07 11:15:07;;;;;;;1.63;1.00;;;23.80;99.90;;;;;;5094323;28;20246;-42
2022/06/07 11:17:48;;;;;;;1.90;1.20;;;23.60;99.90;;;;;;5094484;28;20615;-41
2022/06/07 11:20:18;;;;;;;3.30;1.13;;;23.40;99.90;;;;;;5094266;28;20174;-42
2022/06/07 11:23:11;;;;;;;2.20;1.00;;;23.30;99.90;;;;;;5094148;28;20304;-40
2022/06/07 11:26:06;;;;;;;3.07;1.37;;;23.30;99.90;;;;;;5093782;28;20194;-42
2022/06/07 11:28:40;;;;;;;1.80;1.10;;;23.20;99.90;;;;;;5093928;28;20215;-41
2022/06/07 11:31:24;;;;;;;3.27;1.20;;;23.00;99.90;;;;;;5075656;28;20232;-42
2022/06/07 11:33:53;;;;;;;3.60;1.30;;;22.70;99.90;;;;;;5094305;28;20163;-42
2022/06/07 11:36:28;;;;;;;3.63;1.67;;;22.40;99.90;;;;;;5093890;28;20171;-43
2022/06/07 11:38:54;;;;;;;3.70;1.60;;;22.10;99.90;;;;;;5093999;28;20559;-42
2022/06/07 11:41:38;;;;;;;3.10;1.40;;;21.90;99.90;;;;;;5093844;28;20171;-42
2022/06/07 11:44:12;;;;;;;2.57;1.30;;;21.80;99.90;;;;;;5094252;28;20169;-42
2022/06/07 11:46:49;;;;;;;6.37;1.63;;;21.70;99.90;;;;;;5093695;28;20202;-42
2022/06/07 11:49:21;;;;;;;2.90;1.50;;;21.70;99.90;;;;;;5093737;28;20606;-43
2022/06/07 11:52:11;;;;;;;3.23;1.73;;;21.70;99.90;;;;;;5093629;28;20174;-42
2022/06/07 11:54:46;;;;;;;2.50;1.43;;;21.80;99.90;;;;;;5093810;28;20159;-42
2022/06/07 11:57:32;;;;;;;4.97;2.00;;;21.80;99.90;;;;;;5093404;28;20196;-42
2022/06/07 12:00:19;;;;;;;5.07;1.90;;;21.80;99.90;;;;;;5093727;28;20261;-42
2022/06/07 12:02:57;;;;;;;2.33;1.60;;;21.80;99.90;;;;;;5093742;28;20175;-42
2022/06/07 12:05:30;;;;;;;3.77;1.93;;;21.80;99.90;;;;;;5093586;28;20198;-41
2022/06/07 12:08:06;;;;;;;4.47;1.70;;;21.80;99.90;;;;;;5093854;28;20654;-42
2022/06/07 12:10:38;;;;;;;2.60;1.50;;;21.80;99.90;;;;;;5096071;28;20177;-42
2022/06/07 12:13:07;;;;;;;2.10;1.43;;;21.80;99.90;;;;;;5097501;28;20166;-42
2022/06/07 12:15:41;;;;;;;2.80;1.47;;;21.70;99.90;;;;;;5097498;28;20259;-40
2022/06/07 12:18:24;;;;;;;2.20;1.63;;;21.80;99.90;;;;;;5097168;28;20286;-42
2022/06/07 12:21:06;;;;;;;3.53;2.03;;;21.70;99.90;;;;;;5097566;28;20242;-41
2022/06/07 12:23:36;;;;;;;2.60;1.63;;;21.60;99.90;;;;;;5097547;28;20545;-41
2022/06/07 12:26:06;;;;;;;2.00;1.50;;;21.40;99.90;;;;;;5097192;28;20206;-42
2022/06/07 12:28:34;;;;;;;1.93;1.60;;;21.30;99.90;;;;;;5097079;28;20191;-42
2022/06/07 12:31:15;;;;;;;1.67;1.57;;;21.20;99.90;;;;;;5097221;28;20175;-41
2022/06/07 12:33:51;;;;;;;1.63;1.53;;;21.10;99.90;;;;;;5097771;28;20159;-43
2022/06/07 12:36:29;;;;;;;1.97;1.77;;;21.20;99.90;;;;;;5097409;28;20188;-40
2022/06/07 12:38:57;;;;;;;5.37;1.70;;;21.20;99.90;;;;;;5096930;28;20284;-42
2022/06/07 12:41:26;;;;;;;2.50;1.53;;;21.10;99.90;;;;;;5097213;28;20187;-43
2022/06/07 12:43:58;;;;;;;1.83;1.07;;;21.00;99.90;;;;;;5097054;28;20179;-42
2022/06/07 12:46:29;;;;;;;1.67;0.90;;;21.00;99.90;;;;;;5096745;28;20194;-42
2022/06/07 12:48:56;;;;;;;1.47;1.10;;;20.60;99.90;;;;;;5096836;28;20190;-41
2022/06/07 12:51:24;;;;;;;3.37;1.30;;;20.30;99.90;;;;;;5096777;28;20634;-43
2022/06/07 12:54:00;;;;;;;2.13;1.53;;;20.10;99.90;;;;;;5096990;28;20186;-42
2022/06/07 12:56:28;;;;;;;2.97;1.40;;;20.00;99.90;;;;;;5097020;28;20167;-42
2022/06/07 12:58:57;;;;;;;1.97;1.60;;;20.00;99.90;;;;;;5096618;28;20195;-42
2022/06/07 13:01:32;;;;;;;2.33;1.43;;;20.10;99.90;;;;;;5078634;28;20206;-41
2022/06/07 13:04:03;;;;;;;3.60;2.17;;;20.10;99.90;;;;;;5096885;28;20174;-41
2022/06/07 13:06:29;;;;;;;3.37;2.00;;;20.20;99.90;;;;;;5096376;28;20578;-42
2022/06/07 13:09:00;;;;;;;3.47;1.97;;;20.30;99.90;;;;;;5096662;28;20224;-43
2022/06/07 13:11:26;;;;;;;2.70;1.80;;;20.40;99.90;;;;;;5096826;28;20171;-42
2022/06/07 13:13:53;;;;;;;2.53;1.90;;;20.60;99.90;;;;;;5096758;28;20186;-43
2022/06/07 13:16:42;;;;;;;2.83;2.03;;;20.60;99.90;;;;;;5078262;28;20676;-42
2022/06/07 13:19:13;;;;;;;3.90;1.70;;;20.60;99.90;;;;;;5096489;28;20191;-43
2022/06/07 13:22:02;;;;;;;3.70;1.60;;;20.40;99.90;;;;;;5096027;28;20182;-41
2022/06/07 13:24:43;;;;;;;2.60;1.70;;;20.30;99.90;;;;;;5096683;28;20178;-42
2022/06/07 13:27:27;;;;;;;2.30;1.63;;;20.10;99.90;;;;;;5096458;28;20250;-40